Time;durP1;ratioP1;P1;durP2;ratioP2;P2;SDS_P1;SDS_P2;PMS_P1;PMS_P2;Temp;Humidity;BMP_temperature;BMP_pressure;BME280_temperature;BME280_humidity;BME280_pressure;Samples;Min_cycle;Max_cycle;Signal;HPM_P1;HPM_P2
2021/04/10 00:02:17;;;;;;;5.73;3.87;;;;;;;1.54;90.35;100580.94;5031083;28;20048;-91
2021/04/10 00:04:44;;;;;;;7.17;4.40;;;;;;;1.48;90.55;100594.72;5028417;28;20091;-91
2021/04/10 00:07:10;;;;;;;6.23;4.50;;;;;;;1.44;91.75;100592.94;5018664;28;20036;-89
2021/04/10 00:09:36;;;;;;;5.93;4.30;;;;;;;1.38;92.82;100587.63;5015236;28;20505;-90
2021/04/10 00:12:03;;;;;;;6.97;4.30;;;;;;;1.31;92.89;100591.84;5014073;28;20561;-90
2021/04/10 00:14:29;;;;;;;6.07;4.53;;;;;;;1.26;93.88;100600.44;5028082;28;20090;-91
2021/04/10 00:16:55;;;;;;;5.93;4.70;;;;;;;1.20;95.22;100588.22;5043888;28;20060;-90
2021/04/10 00:19:21;;;;;;;5.50;4.30;;;;;;;1.18;94.76;100584.72;5004290;28;20048;-90
2021/04/10 00:21:49;;;;;;;7.30;4.80;;;;;;;1.12;94.73;100580.28;5050304;28;20395;-90
2021/04/10 00:24:15;;;;;;;5.63;4.30;;;;;;;1.03;94.66;100574.94;5016750;28;20179;-91
2021/04/10 00:26:41;;;;;;;5.83;4.53;;;;;;;0.97;95.93;100577.41;5021921;28;20044;-90
2021/04/10 00:29:07;;;;;;;5.33;4.13;;;;;;;0.91;95.47;100576.44;5034173;28;20044;-89
2021/04/10 00:31:34;;;;;;;6.40;4.70;;;;;;;0.87;94.92;100577.25;5023314;28;20290;-89
2021/04/10 00:34:00;;;;;;;7.53;4.57;;;;;;;0.82;94.90;100570.22;5045001;28;20123;-90
2021/04/10 00:36:27;;;;;;;6.03;4.40;;;;;;;0.79;94.52;100575.38;5020455;28;20498;-91
2021/04/10 00:38:53;;;;;;;6.50;4.83;;;;;;;0.78;94.15;100577.97;5050722;28;20040;-89
2021/04/10 00:41:20;;;;;;;6.37;4.30;;;;;;;0.80;94.88;100571.94;5053787;28;20037;-89
2021/04/10 00:43:55;;;;;;;6.37;4.60;;;;;;;0.78;94.61;100562.34;5019765;28;20127;-90
2021/04/10 00:46:22;;;;;;;6.47;4.40;;;;;;;0.73;93.28;100569.19;5046337;28;20064;-90
2021/04/10 00:48:48;;;;;;;5.03;4.00;;;;;;;0.68;92.58;100573.44;5011302;28;20507;-90
2021/04/10 00:51:14;;;;;;;5.63;4.10;;;;;;;0.62;92.77;100571.59;5037166;28;20040;-90
2021/04/10 00:53:41;;;;;;;4.57;3.97;;;;;;;0.57;92.92;100571.50;5020061;28;20047;-89
2021/04/10 00:56:07;;;;;;;5.60;3.90;;;;;;;0.54;93.37;100573.19;5026129;28;20046;-90
2021/04/10 00:58:34;;;;;;;6.63;4.53;;;;;;;0.52;94.04;100567.97;5052061;28;20537;-90
2021/04/10 01:01:01;;;;;;;6.20;5.00;;;;;;;0.47;94.57;100560.91;5048461;28;20040;-90
2021/04/10 01:03:27;;;;;;;6.23;4.43;;;;;;;0.41;94.67;100568.59;5020042;28;20047;-88
2021/04/10 01:05:53;;;;;;;5.67;4.37;;;;;;;0.36;93.39;100578.03;5056131;28;20529;-90
2021/04/10 01:08:20;;;;;;;7.67;4.57;;;;;;;0.30;93.13;100573.59;5035291;28;20041;-90
2021/04/10 01:10:46;;;;;;;5.90;4.30;;;;;;;0.26;92.96;100572.66;5035101;28;20079;-90
2021/04/10 01:13:47;;;;;;;5.67;4.47;;;;;;;0.24;93.52;100570.88;5032608;28;20102;-90
2021/04/10 01:16:18;;;;;;;6.70;4.57;;;;;;;0.22;94.67;100570.84;5012316;28;20045;-88
2021/04/10 01:19:02;;;;;;;5.63;4.10;;;;;;;0.20;93.93;100564.75;5048732;28;20091;-89
2021/04/10 01:21:39;;;;;;;6.32;4.30;;;;;;;0.18;94.88;100561.25;5052241;28;20090;-90
2021/04/10 01:24:45;;;;;;;5.77;4.40;;;;;;;0.12;95.82;100552.44;5044617;28;20057;-90
2021/04/10 01:27:30;;;;;;;6.73;4.70;;;;;;;0.07;96.01;100552.34;5067014;28;20051;-90
2021/04/10 01:29:58;;;;;;;6.23;4.27;;;;;;;0.02;95.56;100555.72;5043570;28;20071;-90
2021/04/10 01:32:29;;;;;;;5.97;4.67;;;;;;;-0.05;96.57;100550.38;5052371;28;20040;-90
2021/04/10 01:35:09;;;;;;;7.43;5.00;;;;;;;-0.06;96.35;100546.03;5023857;28;20140;-91
2021/04/10 01:37:40;;;;;;;6.50;4.33;;;;;;;-0.07;95.91;100556.41;5040180;28;20048;-90
2021/04/10 01:40:07;;;;;;;6.47;4.30;;;;;;;-0.09;95.35;100555.47;5040685;28;20060;-90
2021/04/10 01:42:34;;;;;;;6.03;4.40;;;;;;;-0.07;95.96;100562.47;5018888;28;20036;-90
2021/04/10 01:45:02;;;;;;;6.47;4.50;;;;;;;0.02;97.44;100555.72;5047647;28;20044;-89
2021/04/10 01:47:34;;;;;;;6.37;5.37;;;;;;;0.07;96.99;100552.34;5034733;28;20040;-90
2021/04/10 01:50:04;;;;;;;6.87;4.33;;;;;;;0.12;96.36;100549.84;5019167;28;20052;-90
2021/04/10 01:52:30;;;;;;;9.17;5.67;;;;;;;0.18;96.46;100548.25;5043598;28;20037;-91
2021/04/10 01:54:58;;;;;;;6.27;4.77;;;;;;;0.23;97.96;100556.13;5043713;28;20041;-90
2021/04/10 01:57:25;;;;;;;6.53;4.57;;;;;;;0.27;98.02;100550.16;5051750;28;20037;-91
2021/04/10 01:59:51;;;;;;;5.93;4.17;;;;;;;0.31;97.89;100551.94;5023074;28;20044;-90
2021/04/10 02:02:18;;;;;;;6.63;5.00;;;;;;;0.35;99.24;100551.19;5027850;28;20036;-90
2021/04/10 02:04:46;;;;;;;6.77;4.73;;;;;;;0.39;100.00;100547.78;5021250;28;20131;-90
2021/04/10 02:07:13;;;;;;;6.67;4.83;;;;;;;0.43;100.00;100539.22;5060830;28;20040;-91
2021/04/10 02:09:46;;;;;;;7.10;4.77;;;;;;;0.47;100.00;100548.78;5043859;28;20507;-89
2021/04/10 02:12:18;;;;;;;6.17;4.47;;;;;;;0.50;100.00;100555.75;5026392;28;20395;-90
2021/04/10 02:14:45;;;;;;;7.03;5.13;;;;;;;0.53;100.00;100558.44;5020920;28;20102;-90
2021/04/10 02:17:14;;;;;;;7.50;4.93;;;;;;;0.54;99.75;100550.66;5054223;28;20117;-89
2021/04/10 02:19:43;;;;;;;5.90;4.33;;;;;;;0.57;100.00;100549.84;5043991;28;20040;-90
2021/04/10 02:22:11;;;;;;;5.13;3.80;;;;;;;0.61;99.27;100556.84;5065021;28;20115;-90
2021/04/10 02:24:37;;;;;;;5.37;4.30;;;;;;;0.64;98.37;100566.44;5023855;28;20044;-90
2021/04/10 02:27:05;;;;;;;4.87;3.93;;;;;;;0.68;98.16;100574.31;5019714;28;20487;-90
2021/04/10 02:29:31;;;;;;;5.87;4.10;;;;;;;0.75;99.77;100575.28;5055333;28;20449;-90
2021/04/10 02:32:01;;;;;;;6.30;4.53;;;;;;;0.78;99.38;100578.84;5014120;28;20073;-90
2021/04/10 02:34:31;;;;;;;5.87;4.20;;;;;;;0.81;99.82;100578.00;5037194;28;20513;-91
2021/04/10 02:37:00;;;;;;;7.07;4.70;;;;;;;0.85;99.75;100579.81;5026857;28;20089;-90
2021/04/10 02:39:27;;;;;;;8.00;5.47;;;;;;;0.88;99.22;100576.38;5039453;28;20037;-90
2021/04/10 02:41:57;;;;;;;6.90;5.10;;;;;;;0.89;99.55;100586.81;5053365;28;20048;-91
2021/04/10 02:44:30;;;;;;;5.93;4.80;;;;;;;0.90;100.00;100583.34;5037064;28;20432;-90
2021/04/10 02:47:01;;;;;;;7.22;4.75;;;;;;;0.91;100.00;100582.50;5021975;28;20060;-91
2021/04/10 02:49:29;;;;;;;6.57;4.23;;;;;;;0.94;100.00;100582.59;5055253;28;20055;-90
2021/04/10 02:51:58;;;;;;;7.03;4.63;;;;;;;0.97;100.00;100587.81;5039483;28;20522;-90
2021/04/10 02:54:26;;;;;;;6.83;4.80;;;;;;;1.01;100.00;100602.66;5050669;28;20052;-91
2021/04/10 02:57:01;;;;;;;6.70;4.63;;;;;;;1.05;100.00;100609.66;5040952;28;20086;-90
2021/04/10 02:59:28;;;;;;;7.17;5.33;;;;;;;1.08;100.00;100614.88;5016036;28;20140;-89
2021/04/10 03:01:57;;;;;;;8.13;5.70;;;;;;;1.13;100.00;100617.59;5015436;28;20064;-91
2021/04/10 03:04:25;;;;;;;6.33;4.77;;;;;;;1.15;100.00;100615.88;5044369;28;20052;-90
2021/04/10 03:06:52;;;;;;;7.30;4.97;;;;;;;1.15;100.00;100620.19;5018816;28;20048;-90
2021/04/10 03:09:18;;;;;;;8.40;4.40;;;;;;;1.19;100.00;100616.81;5034554;28;20044;-90
2021/04/10 03:11:45;;;;;;;5.77;4.47;;;;;;;1.20;100.00;100611.63;5037857;28;20070;-90
2021/04/10 03:14:11;;;;;;;5.70;4.83;;;;;;;1.21;100.00;100604.69;5039483;28;20050;-90
2021/04/10 03:16:38;;;;;;;7.60;5.73;;;;;;;1.23;100.00;100600.38;5033307;28;20040;-91
2021/04/10 03:19:05;;;;;;;9.13;5.30;;;;;;;1.22;100.00;100594.31;5042649;28;20054;-90
2021/04/10 03:21:31;;;;;;;6.73;4.93;;;;;;;1.25;100.00;100593.47;5028019;28;20054;-91
2021/04/10 03:23:58;;;;;;;8.27;5.50;;;;;;;1.27;100.00;100594.41;5023768;28;20440;-90
2021/04/10 03:26:28;;;;;;;6.50;4.90;;;;;;;1.26;100.00;100595.22;5049108;28;20040;-89
2021/04/10 03:28:55;;;;;;;7.80;5.63;;;;;;;1.30;100.00;100603.13;5033432;28;20044;-90
2021/04/10 03:31:22;;;;;;;7.47;5.67;;;;;;;1.33;100.00;100616.16;5036008;28;20040;-90
2021/04/10 03:33:51;;;;;;;9.10;5.03;;;;;;;1.36;100.00;100620.56;5055424;28;20486;-90
2021/04/10 03:36:17;;;;;;;7.27;5.40;;;;;;;1.39;100.00;100618.00;5052147;28;20040;-90
2021/04/10 03:38:44;;;;;;;7.57;5.53;;;;;;;1.41;100.00;100621.50;5032877;28;20129;-90
2021/04/10 03:41:10;;;;;;;7.73;4.97;;;;;;;1.46;100.00;100627.66;5017844;28;20040;-90
2021/04/10 03:43:36;;;;;;;7.83;5.40;;;;;;;1.52;100.00;100629.50;5034088;28;20090;-90
2021/04/10 03:46:03;;;;;;;6.60;5.20;;;;;;;1.52;100.00;100627.78;5017328;28;20036;-87
2021/04/10 03:48:29;;;;;;;7.27;5.40;;;;;;;1.54;100.00;100631.28;5054864;28;20032;-90
2021/04/10 03:50:57;;;;;;;7.23;5.27;;;;;;;1.60;100.00;100633.09;5039845;28;20526;-91
2021/04/10 03:53:23;;;;;;;6.93;5.53;;;;;;;1.63;100.00;100626.19;5017061;28;20056;-90
2021/04/10 03:55:50;;;;;;;7.97;5.03;;;;;;;1.68;100.00;100628.84;5034030;28;20135;-90
2021/04/10 03:58:16;;;;;;;7.00;5.10;;;;;;;1.72;100.00;100635.00;5057244;28;20068;-90
2021/04/10 04:00:42;;;;;;;7.43;5.30;;;;;;;1.76;100.00;100634.19;5037868;28;20048;-91
2021/04/10 04:03:14;;;;;;;7.30;5.70;;;;;;;1.77;100.00;100629.03;5017156;28;20036;-91
2021/04/10 04:05:40;;;;;;;8.50;5.33;;;;;;;1.76;100.00;100636.78;5093377;22;20045;-74
2021/04/10 04:08:06;;;;;;;7.47;5.60;;;;;;;1.77;100.00;100639.44;5054849;28;20438;-75
2021/04/10 04:10:32;;;;;;;6.73;4.70;;;;;;;1.80;100.00;100647.28;5070358;28;20036;-73
2021/04/10 04:12:59;;;;;;;7.53;4.70;;;;;;;1.83;100.00;100646.44;5071391;28;20096;-76
2021/04/10 04:15:25;;;;;;;7.67;5.53;;;;;;;1.86;100.00;100649.13;5071920;28;20551;-76
2021/04/10 04:17:51;;;;;;;6.63;4.83;;;;;;;1.86;100.00;100650.00;5071084;28;20036;-73
2021/04/10 04:20:17;;;;;;;7.63;5.60;;;;;;;1.87;100.00;100643.06;5089861;28;20040;-76
2021/04/10 04:22:43;;;;;;;6.93;4.77;;;;;;;1.87;100.00;100651.75;5054362;28;20040;-75
2021/04/10 04:25:10;;;;;;;7.63;5.53;;;;;;;1.88;100.00;100647.41;5072006;28;20459;-76
2021/04/10 04:27:37;;;;;;;7.60;5.43;;;;;;;1.88;100.00;100650.88;5070907;28;20066;-74
2021/04/10 04:30:04;;;;;;;6.87;4.67;;;;;;;1.91;100.00;100650.03;5071101;28;20040;-76
2021/04/10 04:32:30;;;;;;;6.40;5.10;;;;;;;1.93;100.00;100649.22;5053229;28;20041;-76
2021/04/10 04:34:57;;;;;;;7.77;5.97;;;;;;;1.95;100.00;100646.66;5054552;28;20036;-76
2021/04/10 04:37:23;;;;;;;7.73;5.70;;;;;;;1.97;100.00;100661.44;5070725;28;20058;-75
2021/04/10 04:39:49;;;;;;;8.37;5.67;;;;;;;2.00;100.00;100660.59;5067540;28;20566;-76
2021/04/10 04:42:16;;;;;;;8.23;5.73;;;;;;;2.03;100.00;100673.69;5042723;28;20044;-75
2021/04/10 04:44:43;;;;;;;7.90;5.50;;;;;;;2.05;100.00;100663.28;5071676;28;20040;-76
2021/04/10 04:47:09;;;;;;;9.40;6.10;;;;;;;2.06;100.00;100668.50;5070683;28;20036;-76
2021/04/10 04:49:35;;;;;;;9.53;6.30;;;;;;;2.09;100.00;100678.97;5070585;28;21600;-74
2021/04/10 04:52:02;;;;;;;9.07;5.80;;;;;;;2.10;100.00;100670.31;5054979;28;20052;-75
2021/04/10 04:54:29;;;;;;;7.47;6.10;;;;;;;2.13;100.00;100680.78;5070034;28;20153;-77
2021/04/10 04:56:55;;;;;;;8.53;6.93;;;;;;;2.17;100.00;100686.88;5050480;28;20473;-76
2021/04/10 04:59:21;;;;;;;8.50;6.40;;;;;;;2.17;100.00;100685.16;5051807;28;20043;-76
2021/04/10 05:01:47;;;;;;;9.13;6.63;;;;;;;2.20;100.00;100685.22;5070153;28;20432;-76
2021/04/10 05:04:14;;;;;;;7.93;6.50;;;;;;;2.23;100.00;100693.06;5050683;28;20036;-76
2021/04/10 05:06:40;;;;;;;8.70;6.53;;;;;;;2.25;100.00;100695.69;5070742;28;20052;-76
2021/04/10 05:09:07;;;;;;;8.43;5.97;;;;;;;2.27;100.00;100699.22;5070722;28;20040;-76
2021/04/10 05:11:36;;;;;;;7.33;5.83;;;;;;;2.31;100.00;100713.16;5051287;28;20055;-76
2021/04/10 05:14:02;;;;;;;10.13;7.17;;;;;;;2.32;100.00;100715.78;5089272;28;20093;-77
2021/04/10 05:16:29;;;;;;;8.00;6.33;;;;;;;2.36;100.00;100714.97;5043354;28;20507;-76
2021/04/10 05:18:55;;;;;;;9.53;5.87;;;;;;;2.39;100.00;100709.78;5046486;28;20078;-76
2021/04/10 05:21:23;;;;;;;11.07;7.80;;;;;;;2.39;100.00;100716.75;5069977;28;20534;-76
2021/04/10 05:23:49;;;;;;;9.77;7.23;;;;;;;2.42;100.00;100711.56;5068460;28;20048;-76
2021/04/10 05:26:16;;;;;;;9.50;6.37;;;;;;;2.44;100.00;100728.13;5050117;28;20093;-76
2021/04/10 05:28:43;;;;;;;10.40;6.57;;;;;;;2.48;100.00;100733.38;5068342;28;20046;-77
2021/04/10 05:31:09;;;;;;;9.23;6.73;;;;;;;2.52;100.00;100735.19;5052982;28;20048;-76
2021/04/10 05:33:35;;;;;;;8.63;6.43;;;;;;;2.57;100.00;100729.16;5053000;28;20078;-76
2021/04/10 05:36:02;;;;;;;10.63;7.30;;;;;;;2.61;100.00;100739.66;5054078;28;20562;-76
2021/04/10 05:38:28;;;;;;;11.03;6.37;;;;;;;2.67;100.00;100744.06;5070332;28;20526;-77
2021/04/10 05:40:55;;;;;;;8.27;6.00;;;;;;;2.72;100.00;100745.00;5069213;28;20119;-76
2021/04/10 05:43:21;;;;;;;9.77;6.50;;;;;;;2.78;100.00;100750.31;5070398;28;20504;-76
2021/04/10 05:45:48;;;;;;;10.43;7.07;;;;;;;2.81;100.00;100751.19;5070896;28;20040;-76
2021/04/10 05:48:14;;;;;;;9.33;6.43;;;;;;;2.84;100.00;100758.19;5070040;28;20469;-76
2021/04/10 05:50:40;;;;;;;10.23;6.17;;;;;;;2.91;100.00;100761.75;5071127;28;20097;-76
2021/04/10 05:53:07;;;;;;;9.17;6.47;;;;;;;2.95;100.00;100758.34;5069361;28;20092;-76
2021/04/10 05:55:33;;;;;;;7.47;6.07;;;;;;;2.98;100.00;100761.84;5048001;28;20044;-76
2021/04/10 05:57:59;;;;;;;9.73;6.43;;;;;;;3.03;100.00;100772.34;5069392;28;20036;-76
2021/04/10 06:00:25;;;;;;;9.40;7.23;;;;;;;3.08;100.00;100771.53;5047302;28;20036;-76
2021/04/10 06:02:53;;;;;;;9.10;6.57;;;;;;;3.15;100.00;100767.25;5053891;28;20055;-76
2021/04/10 06:05:20;;;;;;;6.90;5.40;;;;;;;3.21;100.00;100772.56;5069207;28;20040;-77
2021/04/10 06:07:47;;;;;;;9.77;6.23;;;;;;;3.27;100.00;100769.13;5035236;28;20033;-76
2021/04/10 06:10:14;;;;;;;10.07;7.03;;;;;;;3.32;100.00;100770.06;5068122;28;20036;-76
2021/04/10 06:12:41;;;;;;;12.67;7.10;;;;;;;3.36;100.00;100782.28;5051533;28;20040;-76
2021/04/10 06:15:09;;;;;;;10.10;6.90;;;;;;;3.44;100.00;100774.53;5069485;28;20589;-76
2021/04/10 06:17:36;;;;;;;9.43;7.03;;;;;;;3.53;100.00;100782.44;5083759;28;20032;-76
2021/04/10 06:20:04;;;;;;;9.90;7.10;;;;;;;3.61;100.00;100788.63;5053536;28;20039;-76
2021/04/10 06:22:36;;;;;;;12.75;7.43;;;;;;;3.70;100.00;100787.84;5052284;28;20070;-76
2021/04/10 06:25:04;;;;;;;10.00;6.70;;;;;;;3.77;100.00;100794.88;5070967;28;20038;-76
2021/04/10 06:27:31;;;;;;;7.90;5.60;;;;;;;3.87;100.00;100794.13;5053593;28;20176;-76
2021/04/10 06:29:57;;;;;;;7.93;5.73;;;;;;;4.00;100.00;100798.56;5053342;28;20101;-77
2021/04/10 06:32:23;;;;;;;8.87;6.53;;;;;;;4.07;100.00;100802.13;5053847;28;20040;-76
2021/04/10 06:34:49;;;;;;;8.00;5.70;;;;;;;4.16;100.00;100810.91;5052864;28;20124;-76
2021/04/10 06:37:15;;;;;;;8.30;5.63;;;;;;;4.23;100.00;100801.38;5070330;28;20040;-77
2021/04/10 06:39:42;;;;;;;9.03;5.50;;;;;;;4.29;100.00;100797.91;5052885;28;20409;-76
2021/04/10 06:42:09;;;;;;;9.90;5.40;;;;;;;4.35;100.00;100804.06;5070881;28;20048;-76
2021/04/10 06:44:35;;;;;;;10.90;5.90;;;;;;;4.45;100.00;100802.41;5053673;28;20089;-77
2021/04/10 06:47:02;;;;;;;8.50;5.57;;;;;;;4.61;100.00;100812.09;5071073;28;20032;-77
2021/04/10 06:49:30;;;;;;;8.83;5.70;;;;;;;4.69;100.00;100817.38;5088451;28;20032;-77
2021/04/10 06:52:00;;;;;;;8.77;5.40;;;;;;;4.78;100.00;100817.44;5070307;28;20684;-76
2021/04/10 06:54:37;;;;;;;10.23;5.20;;;;;;;4.83;100.00;100818.34;5070272;28;20047;-77
2021/04/10 06:57:10;;;;;;;8.53;5.63;;;;;;;4.87;100.00;100812.25;5053131;28;20114;-76
2021/04/10 06:59:57;;;;;;;8.20;4.60;;;;;;;4.93;100.00;100814.03;5069841;28;20067;-76
2021/04/10 07:02:24;;;;;;;7.53;4.40;;;;;;;4.97;100.00;100807.94;5061360;28;20462;-76
2021/04/10 07:04:50;;;;;;;9.47;5.17;;;;;;;4.96;100.00;100817.56;5042450;28;20052;-76
2021/04/10 07:07:16;;;;;;;9.83;4.83;;;;;;;4.97;100.00;100815.81;5050150;28;20571;-76
2021/04/10 07:09:43;;;;;;;7.60;3.93;;;;;;;5.03;100.00;100819.31;5063763;28;20097;-76
2021/04/10 07:12:09;;;;;;;7.57;4.27;;;;;;;5.05;100.00;100821.94;5069920;28;20051;-76
2021/04/10 07:14:35;;;;;;;8.27;4.03;;;;;;;5.05;100.00;100820.22;5087562;28;20044;-76
2021/04/10 07:17:02;;;;;;;7.13;4.47;;;;;;;5.04;100.00;100818.47;5053505;28;20175;-77
2021/04/10 07:19:29;;;;;;;7.70;4.33;;;;;;;4.99;100.00;100819.28;5069434;28;20101;-77
2021/04/10 07:22:06;;;;;;;7.43;4.33;;;;;;;4.97;100.00;100824.53;5053899;28;20048;-76
2021/04/10 07:24:42;;;;;;;7.23;3.83;;;;;;;4.99;100.00;100833.25;5052618;28;20049;-76
2021/04/10 07:27:16;;;;;;;10.43;4.37;;;;;;;4.97;100.00;100835.00;5050394;28;20406;-77
2021/04/10 07:29:44;;;;;;;8.40;4.30;;;;;;;4.98;100.00;100846.34;5065057;28;20040;-76
2021/04/10 07:32:35;;;;;;;6.83;4.47;;;;;;;5.01;100.00;100842.00;5052637;28;20043;-76
2021/04/10 07:35:12;;;;;;;11.33;4.23;;;;;;;5.04;100.00;100839.41;5051833;28;20079;-76
2021/04/10 07:37:50;;;;;;;9.63;4.70;;;;;;;5.16;100.00;100846.44;5062695;28;20053;-77
2021/04/10 07:40:24;;;;;;;7.47;4.90;;;;;;;5.27;100.00;100834.25;5049663;28;20055;-77
2021/04/10 07:42:50;;;;;;;10.63;5.82;;;;;;;5.31;100.00;100836.03;5086115;28;20413;-77
2021/04/10 07:45:26;;;;;;;7.97;4.57;;;;;;;5.28;100.00;100840.38;5052137;28;20500;-76
2021/04/10 07:48:10;;;;;;;12.37;5.23;;;;;;;5.33;100.00;100843.88;5079056;28;20086;-76
2021/04/10 07:50:37;;;;;;;9.85;4.47;;;;;;;5.53;100.00;100841.31;5066577;28;20131;-76
2021/04/10 07:53:26;;;;;;;7.03;5.10;;;;;;;5.84;100.00;100837.03;5068305;28;20040;-77
2021/04/10 07:55:55;;;;;;;9.90;6.03;;;;;;;6.20;100.00;100844.09;5051946;28;20091;-76
2021/04/10 07:58:23;;;;;;;11.13;4.97;;;;;;;6.51;98.26;100846.72;5085876;28;20423;-77
2021/04/10 08:00:52;;;;;;;11.10;5.30;;;;;;;6.82;97.54;100845.81;5068661;28;20056;-77
2021/04/10 08:03:35;;;;;;;9.13;5.53;;;;;;;6.75;93.42;100847.56;5051272;28;20039;-76
2021/04/10 08:06:04;;;;;;;11.70;5.93;;;;;;;6.53;92.35;100840.56;5042784;28;20044;-76
2021/04/10 08:08:32;;;;;;;11.80;5.57;;;;;;;6.77;92.69;100839.66;5079954;28;20515;-75
2021/04/10 08:11:00;;;;;;;9.30;5.17;;;;;;;6.74;91.41;100844.94;5066557;28;20048;-74
2021/04/10 08:13:27;;;;;;;10.53;5.50;;;;;;;6.96;95.26;100835.25;5066465;28;20516;-74
2021/04/10 08:16:18;;;;;;;10.57;5.10;;;;;;;7.47;94.70;100838.53;5060108;28;20045;-75
2021/04/10 08:18:52;;;;;;;11.33;5.53;;;;;;;7.53;84.98;100842.03;5063512;28;20044;-74
2021/04/10 08:21:32;;;;;;;13.13;5.13;;;;;;;7.47;89.13;100851.69;5050204;28;20044;-74
2021/04/10 08:23:59;;;;;;;11.30;5.17;;;;;;;7.66;88.88;100849.84;5067457;28;20047;-74
2021/04/10 08:26:26;;;;;;;8.50;4.53;;;;;;;7.94;87.10;100861.94;5067315;28;20040;-74
2021/04/10 08:28:53;;;;;;;12.07;6.63;;;;;;;7.49;84.02;100858.72;5031129;28;20044;-73
2021/04/10 08:31:20;;;;;;;10.63;5.77;;;;;;;7.32;87.03;100857.91;5067137;28;20717;-73
2021/04/10 08:33:47;;;;;;;11.70;5.57;;;;;;;7.42;87.65;100864.00;5064534;28;20040;-75
2021/04/10 08:36:14;;;;;;;15.07;6.67;;;;;;;7.57;87.31;100866.56;5066459;28;20093;-74
2021/04/10 08:38:42;;;;;;;11.23;5.23;;;;;;;7.31;82.87;100869.28;5042538;28;20044;-73
2021/04/10 08:41:11;;;;;;;16.20;5.30;;;;;;;7.18;85.46;100865.81;5067128;28;20040;-75
2021/04/10 08:43:49;;;;;;;12.77;6.27;;;;;;;7.23;85.90;100871.06;5068042;28;20039;-73
2021/04/10 08:46:20;;;;;;;11.27;5.33;;;;;;;7.43;83.23;100871.00;5050745;28;20066;-74
2021/04/10 08:48:50;;;;;;;14.87;5.97;;;;;;;7.51;83.37;100870.06;5066379;28;20048;-73
2021/04/10 08:51:17;;;;;;;10.90;5.10;;;;;;;7.64;82.15;100886.66;5034818;28;20039;-75
2021/04/10 08:53:48;;;;;;;10.37;5.40;;;;;;;7.60;81.24;100882.31;5045919;28;20036;-75
2021/04/10 08:56:17;;;;;;;13.13;5.53;;;;;;;7.33;82.50;100876.28;5071161;28;20032;-74
2021/04/10 08:58:44;;;;;;;11.20;5.00;;;;;;;7.66;81.61;100882.28;5051565;28;20137;-75
2021/04/10 09:01:17;;;;;;;6.03;3.70;;;;;;;8.08;80.74;100885.53;5089350;28;20028;-73
2021/04/10 09:03:46;;;;;;;6.33;3.93;;;;;;;8.35;79.74;100877.47;5057749;28;20055;-74
2021/04/10 09:06:13;;;;;;;9.00;4.47;;;;;;;8.36;75.96;100876.59;5089179;28;20094;-73
2021/04/10 09:08:40;;;;;;;12.30;5.83;;;;;;;8.38;75.43;100877.44;5047625;28;20074;-74
2021/04/10 09:11:10;;;;;;;7.33;4.17;;;;;;;8.44;76.08;100885.28;5053978;28;20044;-75
2021/04/10 09:13:46;;;;;;;10.80;4.83;;;;;;;8.35;76.56;100895.03;5054573;28;20093;-75
2021/04/10 09:16:40;;;;;;;10.37;4.40;;;;;;;8.19;78.04;100895.09;5069894;28;20528;-75
2021/04/10 09:19:15;;;;;;;9.25;4.20;;;;;;;8.13;77.81;100900.41;5048776;28;20135;-73
2021/04/10 09:21:52;;;;;;;13.73;4.40;;;;;;;8.13;79.95;100902.16;5070298;28;20043;-75
2021/04/10 09:24:27;;;;;;;14.17;4.50;;;;;;;8.01;78.97;100905.75;5084153;28;20044;-75
2021/04/10 09:27:00;;;;;;;9.20;4.50;;;;;;;8.10;78.79;100910.09;5053034;28;20485;-73
2021/04/10 09:29:28;;;;;;;10.57;4.73;;;;;;;7.85;79.36;100901.47;5088264;28;20036;-74
2021/04/10 09:31:57;;;;;;;9.50;4.10;;;;;;;7.90;81.10;100908.47;5052985;28;20781;-73
2021/04/10 09:34:52;;;;;;;10.67;4.57;;;;;;;7.72;78.85;100912.91;5068687;28;20036;-74
2021/04/10 09:37:21;;;;;;;8.10;3.72;;;;;;;7.75;80.12;100912.91;5070018;28;20040;-75
2021/04/10 09:39:56;;;;;;;11.07;4.33;;;;;;;7.99;78.57;100918.06;5069924;28;20044;-74
2021/04/10 09:42:44;;;;;;;7.30;3.90;;;;;;;8.26;77.84;100924.91;5069455;28;20130;-75
2021/04/10 09:45:16;;;;;;;10.80;4.27;;;;;;;8.19;78.54;100915.28;5069126;28;20040;-75
2021/04/10 09:47:52;;;;;;;8.67;3.87;;;;;;;8.30;78.19;100921.34;5053776;28;20126;-75
2021/04/10 09:50:18;;;;;;;7.30;3.50;;;;;;;8.29;76.51;100919.59;5066370;28;20093;-75
2021/04/10 09:52:52;;;;;;;10.77;4.13;;;;;;;8.55;77.12;100915.94;5052893;28;20071;-75
2021/04/10 09:55:19;;;;;;;8.63;3.88;;;;;;;8.82;77.08;100909.53;5052423;28;20044;-75
2021/04/10 09:57:55;;;;;;;7.82;3.72;;;;;;;8.81;76.42;100920.97;5052399;28;20044;-74
2021/04/10 10:00:34;;;;;;;10.88;3.72;;;;;;;8.83;73.13;100917.47;5068030;28;20390;-72
2021/04/10 10:03:02;;;;;;;14.30;4.57;;;;;;;8.32;73.90;100922.19;5064953;28;20041;-74
2021/04/10 10:05:35;;;;;;;9.63;4.43;;;;;;;8.66;73.91;100930.78;5094562;22;20044;-71
2021/04/10 10:08:16;;;;;;;8.27;3.50;;;;;;;8.68;71.44;100936.03;5047431;28;20748;-71
2021/04/10 10:10:47;;;;;;;11.90;4.18;;;;;;;9.07;72.79;100931.25;5032621;28;20041;-71
2021/04/10 10:13:21;;;;;;;9.63;3.85;;;;;;;9.08;71.12;100936.53;5046348;28;20067;-71
2021/04/10 10:15:49;;;;;;;10.88;4.40;;;;;;;9.46;70.71;100933.47;5031896;28;20044;-71
2021/04/10 10:18:19;;;;;;;10.30;3.90;;;;;;;9.75;68.79;100938.41;5032460;28;20033;-71
2021/04/10 10:21:05;;;;;;;7.95;3.80;;;;;;;9.73;70.16;100934.91;5049557;28;20110;-71
2021/04/10 10:23:37;;;;;;;7.70;2.85;;;;;;;9.68;69.74;100939.38;5045014;28;20044;-72
2021/04/10 10:26:23;;;;;;;10.88;3.95;;;;;;;9.92;70.02;100937.28;5030115;28;20052;-71
2021/04/10 10:28:59;;;;;;;9.40;3.80;;;;;;;9.98;66.13;100940.72;5055223;28;20072;-71
2021/04/10 10:31:29;;;;;;;11.52;4.30;;;;;;;9.54;66.55;100939.53;5038558;28;20045;-71
2021/04/10 10:34:03;;;;;;;9.05;3.63;;;;;;;9.17;69.10;100946.13;5044556;28;20040;-71
2021/04/10 10:36:32;;;;;;;7.70;3.05;;;;;;;9.49;69.39;100951.88;5033844;28;20048;-71
2021/04/10 10:38:59;;;;;;;9.50;4.10;;;;;;;9.44;69.16;100956.38;5045710;28;20037;-70
2021/04/10 10:41:25;;;;;;;10.05;4.30;;;;;;;8.79;68.05;100957.00;5048941;28;20045;-71
2021/04/10 10:43:59;;;;;;;12.07;3.42;;;;;;;8.45;70.37;100963.41;5044729;28;20028;-71
2021/04/10 10:46:25;;;;;;;7.25;3.47;;;;;;;8.59;70.31;100965.94;5027003;28;20063;-71
2021/04/10 10:48:52;;;;;;;8.68;3.75;;;;;;;8.87;70.93;100963.94;5045947;28;20043;-71
2021/04/10 10:51:20;;;;;;;9.35;4.13;;;;;;;9.06;71.71;100964.66;5045845;28;20049;-71
2021/04/10 10:53:52;;;;;;;12.52;5.47;;;;;;;9.14;68.07;100962.81;5044920;28;20037;-71
2021/04/10 10:56:28;;;;;;;13.65;4.93;;;;;;;9.46;70.76;100956.34;5044247;28;20037;-71
2021/04/10 10:58:57;;;;;;;7.28;4.00;;;;;;;9.84;68.78;100955.91;5043069;28;20044;-71
2021/04/10 11:01:31;;;;;;;6.93;3.85;;;;;;;10.29;67.30;100950.91;5045469;28;20043;-71
2021/04/10 11:04:11;;;;;;;10.55;3.80;;;;;;;10.69;61.30;100949.41;5010706;28;20045;-71
2021/04/10 11:06:37;;;;;;;8.82;3.83;;;;;;;11.44;62.86;100955.13;5029883;28;20052;-71
2021/04/10 11:09:07;;;;;;;12.63;3.75;;;;;;;11.58;62.19;100950.41;5044794;28;20045;-71
2021/04/10 11:11:41;;;;;;;9.50;3.45;;;;;;;12.13;61.40;100957.25;5044873;28;20048;-71
2021/04/10 11:14:09;;;;;;;10.98;4.18;;;;;;;11.63;58.23;100955.63;5040561;28;20452;-71
2021/04/10 11:16:42;;;;;;;10.05;4.18;;;;;;;11.47;57.58;100961.22;5040973;28;20036;-71
2021/04/10 11:19:08;;;;;;;13.80;4.72;;;;;;;11.44;58.48;100968.34;5040952;28;20607;-71
2021/04/10 11:21:35;;;;;;;9.10;3.85;;;;;;;11.54;57.45;100977.84;5024364;28;20040;-71
2021/04/10 11:24:10;;;;;;;12.50;3.97;;;;;;;11.51;60.26;100977.91;5037834;28;20090;-71
2021/04/10 11:26:47;;;;;;;8.32;3.85;;;;;;;9.87;60.12;100987.50;5038953;28;20047;-71
2021/04/10 11:29:20;;;;;;;7.85;3.55;;;;;;;10.06;63.36;100978.47;5042468;28;20044;-71
2021/04/10 11:32:06;;;;;;;12.13;4.50;;;;;;;9.55;62.71;100988.75;5047062;28;20048;-71
2021/04/10 11:34:34;;;;;;;10.63;3.85;;;;;;;9.65;62.09;100996.56;5044432;28;20040;-73
2021/04/10 11:37:02;;;;;;;12.20;4.07;;;;;;;9.52;62.04;100995.84;5029224;28;20048;-70
2021/04/10 11:39:29;;;;;;;9.05;4.18;;;;;;;9.54;62.49;100994.94;5046377;28;20055;-71